createdAt,value
2023-05-05T00:13:26.086Z,10.26
2023-05-05T00:29:08.686Z,10.14
2023-05-05T00:44:51.049Z,10.05
2023-05-05T01:00:33.775Z,9.89
2023-05-05T01:16:16.455Z,9.74
2023-05-05T01:31:59.431Z,9.58
2023-05-05T01:47:41.538Z,9.35
2023-05-05T02:03:23.689Z,9.14
2023-05-05T02:19:06.593Z,8.89
2023-05-05T02:34:48.871Z,8.7
2023-05-05T02:50:31.526Z,8.55
2023-05-05T03:06:14.303Z,8.5
2023-05-05T03:21:56.765Z,8.49
2023-05-05T03:37:39.703Z,8.5
2023-05-05T03:53:22.614Z,8.51
2023-05-05T04:24:47.499Z,8.64
2023-05-05T04:40:29.655Z,8.88
2023-05-05T04:56:12.633Z,9.25
2023-05-05T05:11:55.032Z,9.7
2023-05-05T05:27:37.929Z,10.18
2023-05-05T05:59:02.631Z,11.11
2023-05-05T06:30:27.892Z,12.52
2023-05-05T06:46:10.777Z,13.26
2023-05-05T07:02:00.766Z,13.83
2023-05-05T07:17:36.649Z,14.41
2023-05-05T07:33:26.459Z,14.39
2023-05-05T07:49:01.662Z,14.63
2023-05-05T08:36:08.814Z,17.12
2023-05-05T09:07:34.336Z,20.85
2023-05-05T09:23:16.974Z,21.81
2023-05-05T10:10:24.719Z,23.77
2023-05-05T10:26:14.409Z,25.17
2023-05-05T10:41:50.105Z,25.54
2023-05-05T10:57:32.449Z,26.31
2023-05-05T11:13:22.092Z,27.33
2023-05-05T11:28:57.016Z,28.65
2023-05-05T11:44:39.026Z,28.5
2023-05-05T12:31:46.241Z,28.58
2023-05-05T12:47:28.623Z,29.57
2023-05-05T13:03:11.408Z,30.43
2023-05-05T13:19:01.141Z,30.77
2023-05-05T13:19:48.342Z,30.99
2023-05-05T14:06:55.923Z,31.87
2023-05-05T14:22:45.675Z,31.85
2023-05-05T15:09:46.326Z,28.41
2023-05-05T15:25:28.923Z,27.37
2023-05-05T15:41:11.600Z,26.44
2023-05-05T15:57:01.454Z,25.88
2023-05-05T16:12:36.667Z,24.13
2023-05-05T16:28:33.302Z,22.13
2023-05-05T16:44:08.738Z,20.84
2023-05-05T16:59:43.935Z,19.9
2023-05-05T17:15:33.109Z,19.12
2023-05-05T17:31:08.871Z,18.56
2023-05-05T17:46:50.987Z,18.04
2023-05-05T18:02:32.920Z,17.5
2023-05-05T18:34:05.701Z,16.6
2023-05-05T18:49:40.807Z,16.2
2023-05-05T19:05:23.829Z,15.85
2023-05-05T19:37:03.199Z,15.3
2023-05-05T19:52:38.855Z,15.04
2023-05-05T20:08:14.299Z,14.79
2023-05-05T20:24:03.696Z,14.43
2023-05-05T20:39:46.090Z,14.2
2023-05-05T20:55:28.265Z,13.98
2023-05-05T21:11:03.518Z,13.76
2023-05-05T21:27:00.565Z,13.66
2023-05-05T21:42:36.184Z,13.49
2023-05-05T22:13:53.843Z,13.05
2023-05-05T22:29:50.531Z,12.63
2023-05-05T22:45:19.178Z,12.25
2023-05-05T23:01:01.750Z,12.01
2023-05-05T23:16:44.511Z,11.5
2023-05-05T23:32:27.252Z,10.99
2023-05-05T23:48:09.758Z,10.43
